Time;durP1;ratioP1;P1;durP2;ratioP2;P2;SDS_P1;SDS_P2;PMS_P1;PMS_P2;Temp;Humidity;BMP_temperature;BMP_pressure;BME280_temperature;BME280_humidity;BME280_pressure;Samples;Min_cycle;Max_cycle;Signal;HPM_P1;HPM_P2
2021/10/24 00:01:19;;;;;;;7.20;4.47;;;;;;;8.23;58.87;100242.61;1673964;85;21581;-71
2021/10/24 00:03:46;;;;;;;11.60;5.35;;;;;;;8.21;58.94;100223.23;1701482;84;21036;-70
2021/10/24 00:06:13;;;;;;;9.58;5.05;;;;;;;8.19;59.20;100229.88;1700564;84;21136;-69
2021/10/24 00:08:39;;;;;;;12.82;5.85;;;;;;;8.16;59.39;100233.80;1667381;85;21054;-68
2021/10/24 00:11:06;;;;;;;6.65;4.47;;;;;;;8.17;59.44;100244.00;1672985;85;21004;-71
2021/10/24 00:13:33;;;;;;;9.93;6.12;;;;;;;8.15;59.55;100228.68;1655340;84;21025;-69
2021/10/24 00:16:00;;;;;;;12.85;5.80;;;;;;;8.16;59.58;100235.66;1672072;85;21047;-68
2021/10/24 00:18:26;;;;;;;9.53;4.72;;;;;;;8.13;59.94;100234.25;1672390;84;21104;-68
2021/10/24 00:20:55;;;;;;;10.68;5.08;;;;;;;8.12;59.92;100223.75;1663170;83;20956;-71
2021/10/24 00:23:21;;;;;;;11.43;6.03;;;;;;;8.10;60.12;100232.02;1691798;84;20906;-70
2021/10/24 00:25:48;;;;;;;5.60;4.42;;;;;;;8.10;60.17;100232.02;1679639;83;21008;-71
2021/10/24 00:28:15;;;;;;;14.18;5.08;;;;;;;8.09;60.43;100238.42;1672797;85;21014;-69
2021/10/24 00:30:41;;;;;;;11.95;5.42;;;;;;;8.10;60.38;100240.58;1653606;85;22167;-73
2021/10/24 00:33:08;;;;;;;8.23;4.97;;;;;;;8.10;60.43;100225.84;1672858;85;21620;-71
2021/10/24 00:35:34;;;;;;;7.53;4.95;;;;;;;8.08;60.62;100234.09;1694571;84;21327;-72
2021/10/24 00:38:00;;;;;;;8.15;5.35;;;;;;;8.08;60.82;100234.61;1700922;84;21009;-71
2021/10/24 00:40:27;;;;;;;8.58;5.17;;;;;;;8.05;61.05;100231.86;1673086;85;21072;-72
2021/10/24 00:42:54;;;;;;;11.43;5.05;;;;;;;8.04;61.09;100234.23;1672887;85;21508;-71
2021/10/24 00:45:23;;;;;;;9.10;4.67;;;;;;;8.03;61.33;100235.78;1691500;84;21140;-70
2021/10/24 00:47:53;;;;;;;13.08;5.12;;;;;;;8.02;61.29;100233.63;1701228;84;21040;-71
2021/10/24 00:50:20;;;;;;;8.50;5.62;;;;;;;8.02;61.42;100232.28;1674108;85;21528;-72
2021/10/24 00:52:47;;;;;;;6.33;4.65;;;;;;;8.00;61.75;100233.56;1643779;87;21007;-70
2021/10/24 00:55:14;;;;;;;6.97;4.87;;;;;;;7.98;61.87;100235.62;1670854;84;21200;-71
2021/10/24 00:57:41;;;;;;;8.20;5.10;;;;;;;7.96;62.16;100237.72;1681016;84;21103;-71
2021/10/24 01:00:13;;;;;;;18.25;5.35;;;;;;;7.94;62.24;100244.63;1681190;84;21031;-70
2021/10/24 01:02:40;;;;;;;7.55;5.00;;;;;;;7.95;62.39;100243.59;1636176;84;21004;-70
2021/10/24 01:05:08;;;;;;;7.78;5.62;;;;;;;7.92;62.62;100245.86;1676167;85;20976;-71
2021/10/24 01:07:36;;;;;;;7.37;5.17;;;;;;;7.88;62.90;100242.30;1704592;83;21033;-70
2021/10/24 01:10:05;;;;;;;8.83;5.80;;;;;;;7.86;63.09;100247.59;1680866;84;21048;-71
2021/10/24 01:12:31;;;;;;;8.43;5.08;;;;;;;7.84;63.32;100267.05;1700997;84;21014;-71
2021/10/24 01:14:59;;;;;;;6.92;4.92;;;;;;;7.83;63.43;100258.71;1700299;83;20992;-68
2021/10/24 01:17:26;;;;;;;9.58;5.42;;;;;;;7.82;63.72;100251.19;1674553;85;21093;-70
2021/10/24 01:19:52;;;;;;;10.15;5.70;;;;;;;7.82;63.71;100256.55;1653421;85;21151;-70
2021/10/24 01:22:19;;;;;;;12.40;5.55;;;;;;;7.82;63.84;100261.91;1646683;86;21022;-69
2021/10/24 01:24:46;;;;;;;9.53;5.37;;;;;;;7.81;64.05;100257.61;1659701;85;21020;-69
2021/10/24 01:27:12;;;;;;;10.25;5.90;;;;;;;7.82;64.27;100267.27;1655557;85;21032;-70
2021/10/24 01:29:39;;;;;;;9.13;5.28;;;;;;;7.82;64.34;100269.12;1677286;85;21088;-69
2021/10/24 01:32:06;;;;;;;7.42;5.05;;;;;;;7.82;64.72;100264.59;1655629;85;22234;-75
2021/10/24 01:34:47;;;;;;;8.00;5.33;;;;;;;7.81;64.85;100272.34;1639736;85;21005;-73
2021/10/24 01:37:16;;;;;;;8.95;5.08;;;;;;;7.81;65.04;100279.55;1655283;85;21615;-71
2021/10/24 01:39:42;;;;;;;7.78;5.22;;;;;;;7.78;65.19;100275.95;1649042;85;20944;-72
2021/10/24 01:42:08;;;;;;;12.33;5.47;;;;;;;7.75;65.27;100269.70;1709853;83;21064;-72
2021/10/24 01:44:35;;;;;;;6.58;4.97;;;;;;;7.74;65.55;100272.06;1700714;83;21140;-75
2021/10/24 01:47:02;;;;;;;9.50;5.03;;;;;;;7.72;65.57;100278.18;1674520;85;21060;-72
2021/10/24 01:49:32;;;;;;;8.18;4.75;;;;;;;7.71;65.65;100272.00;1676119;85;21768;-71
2021/10/24 01:52:01;;;;;;;5.42;4.05;;;;;;;7.70;65.74;100277.56;1607998;88;21563;-72
2021/10/24 01:54:28;;;;;;;5.87;4.97;;;;;;;7.68;65.83;100272.41;1663406;83;21059;-71
2021/10/24 01:56:55;;;;;;;8.40;4.55;;;;;;;7.68;65.92;100279.11;1659512;85;21783;-72
2021/10/24 01:59:21;;;;;;;11.20;4.72;;;;;;;7.66;66.09;100279.03;1655624;84;21024;-71
2021/10/24 02:02:06;;;;;;;9.68;6.03;;;;;;;7.63;66.21;100281.61;1662525;85;21020;-72
2021/10/24 02:04:51;;;;;;;13.85;5.53;;;;;;;7.61;66.33;100277.52;1704701;83;21551;-73
2021/10/24 02:07:20;;;;;;;7.65;4.83;;;;;;;7.56;66.81;100283.52;1688455;83;21024;-73
2021/10/24 02:09:47;;;;;;;8.85;5.10;;;;;;;7.53;66.82;100287.95;1710276;83;21099;-71
2021/10/24 02:12:13;;;;;;;9.33;4.43;;;;;;;7.50;66.98;100277.69;1710787;83;21577;-72
2021/10/24 02:14:41;;;;;;;7.03;5.25;;;;;;;7.48;67.09;100291.82;1674616;84;21106;-71
2021/10/24 02:17:07;;;;;;;6.25;4.87;;;;;;;7.47;67.22;100278.13;1698948;83;21043;-71
2021/10/24 02:19:34;;;;;;;7.95;3.98;;;;;;;7.45;67.23;100282.34;1684865;84;20964;-73
2021/10/24 02:22:03;;;;;;;15.55;5.50;;;;;;;7.42;67.34;100282.79;1697608;83;21158;-71
2021/10/24 02:24:32;;;;;;;8.75;4.95;;;;;;;7.43;67.43;100285.74;1658565;85;21007;-71
2021/10/24 02:26:58;;;;;;;8.55;6.03;;;;;;;7.43;67.59;100292.98;1692354;84;21548;-69
2021/10/24 02:29:27;;;;;;;9.00;4.75;;;;;;;7.41;67.68;100297.71;1653368;85;21048;-73
2021/10/24 02:31:55;;;;;;;6.75;4.20;;;;;;;7.37;68.07;100293.83;1674654;85;21537;-71
2021/10/24 02:34:23;;;;;;;8.53;4.53;;;;;;;7.38;67.98;100298.98;1649841;85;21193;-70
2021/10/24 02:36:51;;;;;;;6.15;4.60;;;;;;;7.40;68.08;100303.58;1686609;84;20947;-73
2021/10/24 02:39:18;;;;;;;9.05;5.08;;;;;;;7.42;68.01;100312.23;1695769;84;21509;-72
2021/10/24 02:41:44;;;;;;;6.85;4.75;;;;;;;7.47;68.03;100313.44;1680600;84;21498;-73
2021/10/24 02:44:12;;;;;;;10.53;5.28;;;;;;;7.49;68.06;100312.17;1641672;86;23448;-71
2021/10/24 02:46:42;;;;;;;4.67;4.28;;;;;;;7.49;68.13;100315.36;1614721;88;21079;-71
2021/10/24 02:49:11;;;;;;;9.58;5.12;;;;;;;7.47;68.10;100314.27;1651013;86;20988;-71
2021/10/24 02:51:40;;;;;;;9.45;5.12;;;;;;;7.47;68.26;100311.58;1640229;86;21023;-71
2021/10/24 02:54:06;;;;;;;8.40;5.62;;;;;;;7.45;68.58;100314.46;1625014;88;21094;-70
2021/10/24 02:56:33;;;;;;;8.03;4.50;;;;;;;7.42;68.66;100320.25;1599068;88;21512;-70
2021/10/24 02:59:00;;;;;;;6.10;4.78;;;;;;;7.42;68.69;100325.61;1652042;86;21390;-72
2021/10/24 03:01:26;;;;;;;7.92;5.30;;;;;;;7.42;68.76;100322.94;1627224;87;21009;-76
2021/10/24 03:03:53;;;;;;;6.28;4.70;;;;;;;7.41;69.01;100313.77;1606090;86;21007;-70
2021/10/24 03:06:20;;;;;;;4.92;4.40;;;;;;;7.39;69.14;100320.66;1624841;87;21099;-69
2021/10/24 03:08:46;;;;;;;6.40;4.40;;;;;;;7.38;69.23;100326.25;1647220;87;21059;-70
2021/10/24 03:11:13;;;;;;;8.05;5.35;;;;;;;7.40;69.14;100326.84;1647566;87;21088;-73
2021/10/24 03:13:41;;;;;;;8.05;5.08;;;;;;;7.39;69.31;100331.37;1647229;86;21561;-73
2021/10/24 03:16:10;;;;;;;7.47;5.60;;;;;;;7.40;69.39;100322.83;1624643;87;21040;-72
2021/10/24 03:18:37;;;;;;;10.35;5.22;;;;;;;7.39;69.49;100322.00;1646579;87;21553;-74
2021/10/24 03:21:03;;;;;;;7.20;4.83;;;;;;;7.44;69.45;100328.05;1646404;86;21521;-75
2021/10/24 03:23:31;;;;;;;8.90;4.85;;;;;;;7.48;69.44;100330.62;1622920;86;21262;-74
2021/10/24 03:25:58;;;;;;;5.72;4.87;;;;;;;7.50;69.41;100321.84;1621180;87;20944;-75
2021/10/24 03:28:25;;;;;;;5.10;4.45;;;;;;;7.51;69.47;100332.04;1621188;88;21461;-74
2021/10/24 03:30:51;;;;;;;8.40;5.35;;;;;;;7.49;69.51;100324.73;1627492;87;21557;-73
2021/10/24 03:33:18;;;;;;;9.28;5.55;;;;;;;7.45;69.69;100330.52;1624918;87;21548;-75
2021/10/24 03:35:44;;;;;;;12.68;5.80;;;;;;;7.44;69.69;100334.74;1646213;86;21976;-73
2021/10/24 03:38:10;;;;;;;12.70;6.10;;;;;;;7.43;69.75;100328.56;1604701;87;21628;-75
2021/10/24 03:40:38;;;;;;;9.85;5.33;;;;;;;7.41;69.89;100337.34;1648700;86;21076;-71
2021/10/24 03:43:05;;;;;;;13.55;5.15;;;;;;;7.41;69.93;100353.91;1654644;86;21071;-71
2021/10/24 03:45:32;;;;;;;5.55;4.10;;;;;;;7.36;70.21;100353.21;1646784;86;21689;-71
2021/10/24 03:47:59;;;;;;;11.45;5.35;;;;;;;7.36;70.24;100340.34;1682970;83;21238;-72
2021/10/24 03:50:27;;;;;;;5.40;4.75;;;;;;;7.35;70.37;100344.88;1665625;85;21534;-71
2021/10/24 03:52:53;;;;;;;8.05;4.28;;;;;;;7.38;70.33;100338.30;1681948;83;21060;-73
2021/10/24 03:55:20;;;;;;;10.85;5.50;;;;;;;7.42;70.26;100347.53;1686896;83;21107;-70
2021/10/24 03:57:46;;;;;;;8.68;5.78;;;;;;;7.43;70.25;100351.86;1689638;83;21636;-70
2021/10/24 04:00:13;;;;;;;10.25;4.45;;;;;;;7.40;70.36;100354.94;1682260;85;22105;-73
2021/10/24 04:02:57;;;;;;;7.62;5.60;;;;;;;7.39;70.38;100351.44;1607665;87;21034;-72
2021/10/24 04:05:25;;;;;;;7.92;5.75;;;;;;;7.36;70.50;100351.05;1636044;87;21059;-71
2021/10/24 04:07:52;;;;;;;11.43;5.85;;;;;;;7.36;70.61;100351.88;1635469;87;21024;-70
2021/10/24 04:10:20;;;;;;;6.37;5.20;;;;;;;7.34;70.67;100349.09;1686393;83;21010;-72
2021/10/24 04:12:47;;;;;;;12.82;5.08;;;;;;;7.31;70.75;100355.70;1700854;83;21150;-71
2021/10/24 04:15:13;;;;;;;9.30;5.10;;;;;;;7.30;70.89;100350.55;1689609;83;20971;-72
2021/10/24 04:17:40;;;;;;;10.00;6.25;;;;;;;7.31;70.99;100362.91;1680585;84;21016;-72
2021/10/24 04:20:09;;;;;;;8.88;5.58;;;;;;;7.33;70.96;100346.13;1703264;83;20996;-72
2021/10/24 04:22:36;;;;;;;9.03;5.55;;;;;;;7.35;70.94;100353.41;1680753;84;21099;-70
2021/10/24 04:25:04;;;;;;;9.00;4.67;;;;;;;7.35;70.97;100360.93;1703004;83;21192;-71
2021/10/24 04:27:31;;;;;;;9.95;6.42;;;;;;;7.36;71.05;100355.89;1680530;84;20989;-70
2021/10/24 04:29:59;;;;;;;9.83;5.42;;;;;;;7.33;71.08;100372.37;1676483;84;21036;-71
2021/10/24 04:32:25;;;;;;;10.00;5.90;;;;;;;7.32;71.16;100365.89;1619727;87;21116;-70
2021/10/24 04:34:52;;;;;;;12.50;4.80;;;;;;;7.30;71.31;100362.59;1695404;83;21544;-71
2021/10/24 04:37:18;;;;;;;10.28;5.33;;;;;;;7.27;71.48;100369.20;1674669;85;21425;-71
2021/10/24 04:39:47;;;;;;;6.97;5.20;;;;;;;7.25;71.59;100369.92;1669237;84;22233;-71
2021/10/24 04:42:13;;;;;;;7.20;5.03;;;;;;;7.22;71.69;100379.72;1702946;84;21000;-70
2021/10/24 04:44:40;;;;;;;11.10;5.28;;;;;;;7.22;71.84;100373.03;1675713;85;21067;-71
2021/10/24 04:47:06;;;;;;;9.53;5.33;;;;;;;7.21;71.94;100376.73;1653402;85;21056;-69
2021/10/24 04:49:34;;;;;;;10.90;5.97;;;;;;;7.24;71.93;100379.52;1653220;85;21096;-69
2021/10/24 04:52:00;;;;;;;12.63;6.08;;;;;;;7.25;71.88;100377.12;1656130;84;21067;-74
2021/10/24 04:54:26;;;;;;;10.58;6.03;;;;;;;7.26;71.89;100375.58;1675923;84;21071;-73
2021/10/24 04:56:53;;;;;;;9.73;5.95;;;;;;;7.28;71.87;100382.07;1703034;84;20992;-74
2021/10/24 04:59:19;;;;;;;13.70;5.53;;;;;;;7.27;71.91;100393.28;1703011;83;21083;-73
2021/10/24 05:01:47;;;;;;;11.55;7.33;;;;;;;7.26;71.89;100394.31;1693745;84;21229;-73
2021/10/24 05:04:14;;;;;;;8.63;5.85;;;;;;;7.23;72.05;100396.08;1676794;85;21036;-73
2021/10/24 05:06:41;;;;;;;7.87;4.42;;;;;;;7.22;72.17;100393.09;1685163;84;21111;-71
2021/10/24 05:09:08;;;;;;;7.58;5.55;;;;;;;7.21;72.21;100408.83;1703059;84;22009;-70
2021/10/24 05:11:34;;;;;;;8.43;4.72;;;;;;;7.20;72.32;100399.16;1703025;84;21600;-71
2021/10/24 05:14:04;;;;;;;11.20;5.60;;;;;;;7.22;72.35;100405.12;1677302;84;21122;-70
2021/10/24 05:16:32;;;;;;;11.55;6.20;;;;;;;7.24;72.31;100408.40;1702160;83;20944;-71
2021/10/24 05:18:58;;;;;;;11.08;6.03;;;;;;;7.25;72.25;100403.88;1703279;84;20972;-72
2021/10/24 05:21:25;;;;;;;12.58;6.58;;;;;;;7.28;72.25;100419.53;1680440;84;21005;-75
2021/10/24 05:23:51;;;;;;;11.40;6.15;;;;;;;7.27;72.30;100424.56;1703307;84;21065;-73
2021/10/24 05:26:18;;;;;;;9.28;6.33;;;;;;;7.27;72.37;100441.95;1696628;84;21162;-74
2021/10/24 05:28:47;;;;;;;7.50;4.92;;;;;;;7.25;72.45;100459.55;1698977;84;21525;-74
2021/10/24 05:31:13;;;;;;;10.08;5.37;;;;;;;7.25;72.47;100439.99;1671864;84;20953;-71
2021/10/24 05:33:42;;;;;;;10.70;6.35;;;;;;;7.24;72.59;100443.73;1692389;84;21539;-73
2021/10/24 05:36:25;;;;;;;;;;;;;;;7.27;72.61;100464.70;1655829;85;21079;-71
2021/10/24 05:38:51;;;;;;;9.53;5.12;;;;;;;7.30;72.51;100461.08;1676055;84;21083;-72
2021/10/24 05:41:20;;;;;;;8.98;5.03;;;;;;;7.33;72.39;100475.91;1699938;84;21135;-71
2021/10/24 05:43:55;;;;;;;7.78;4.67;;;;;;;7.34;72.40;100467.66;1701289;84;21525;-71
2021/10/24 05:46:22;;;;;;;8.85;4.75;;;;;;;7.35;72.48;100473.31;1678633;83;20981;-71
2021/10/24 05:48:48;;;;;;;5.75;4.45;;;;;;;7.32;72.71;100475.59;1694163;84;21056;-72
2021/10/24 05:51:17;;;;;;;7.65;5.75;;;;;;;7.31;72.85;100480.13;1700778;84;21095;-71
2021/10/24 05:53:44;;;;;;;11.75;5.40;;;;;;;7.31;72.86;100475.28;1667438;85;20970;-72
2021/10/24 05:56:13;;;;;;;14.23;5.97;;;;;;;7.33;72.93;100481.27;1672321;85;21512;-73
2021/10/24 05:58:42;;;;;;;11.10;6.08;;;;;;;7.32;73.26;100492.48;1649991;86;21097;-73
2021/10/24 06:01:10;;;;;;;8.40;5.42;;;;;;;7.32;73.32;100481.77;1675574;84;21838;-72
2021/10/24 06:03:41;;;;;;;10.08;6.60;;;;;;;7.35;73.38;100501.93;1683310;85;21224;-72
2021/10/24 06:06:20;;;;;;;8.03;4.90;;;;;;;7.36;73.30;100489.69;1675744;84;21005;-74
2021/10/24 06:08:47;;;;;;;6.60;4.45;;;;;;;7.40;73.28;100492.25;1678536;84;21067;-75
2021/10/24 06:11:17;;;;;;;7.90;5.40;;;;;;;7.41;73.27;100497.91;1676141;83;21064;-74
2021/10/24 06:13:42;;;;;;;9.23;5.47;;;;;;;7.39;73.32;100504.48;1677234;84;21524;-72
2021/10/24 06:16:09;;;;;;;8.30;4.55;;;;;;;7.39;73.33;100506.66;1653263;85;21576;-73
2021/10/24 06:18:37;;;;;;;8.85;4.30;;;;;;;7.38;73.40;100519.75;1684155;84;21040;-73
2021/10/24 06:21:04;;;;;;;5.33;3.90;;;;;;;7.34;73.34;100515.82;1674625;84;21596;-75
2021/10/24 06:23:33;;;;;;;7.58;3.90;;;;;;;7.28;73.11;100519.86;1681003;84;21029;-76
2021/10/24 06:25:59;;;;;;;5.58;3.45;;;;;;;7.27;73.32;100511.52;1698969;83;21085;-74
2021/10/24 06:28:26;;;;;;;10.08;3.80;;;;;;;7.27;73.45;100519.04;1696830;84;21003;-75
2021/10/24 06:30:52;;;;;;;6.25;4.60;;;;;;;7.27;73.48;100519.55;1688160;84;20996;-75
2021/10/24 06:33:22;;;;;;;4.62;3.10;;;;;;;7.26;73.58;100522.73;1679176;84;21021;-76
2021/10/24 06:36:07;;;;;;;6.80;3.12;;;;;;;7.25;73.28;100536.31;1678845;84;21080;-75
2021/10/24 06:38:52;;;;;;;5.37;2.40;;;;;;;7.23;73.41;100529.85;1694363;84;20945;-77
2021/10/24 06:41:27;;;;;;;7.42;3.05;;;;;;;7.24;73.77;100529.34;1686932;84;21285;-77
2021/10/24 06:44:07;;;;;;;5.35;3.35;;;;;;;7.27;73.88;100530.25;1624387;85;21000;-77
2021/10/24 06:46:52;;;;;;;4.30;3.40;;;;;;;7.32;74.01;100535.30;1698737;84;21045;-76
2021/10/24 06:49:37;;;;;;;7.37;3.50;;;;;;;7.33;74.26;100539.63;1692537;84;21532;-77
2021/10/24 06:52:10;;;;;;;6.05;3.50;;;;;;;7.32;74.49;100538.48;1661287;84;21548;-79
2021/10/24 06:54:44;;;;;;;3.75;3.45;;;;;;;7.29;74.77;100538.36;1674316;84;21628;-76
2021/10/24 06:57:29;;;;;;;8.60;4.90;;;;;;;7.29;74.97;100545.59;1700189;83;21085;-76
2021/10/24 07:00:19;;;;;;;5.65;3.62;;;;;;;7.30;75.14;100555.24;1675220;84;21018;-74
2021/10/24 07:03:05;;;;;;;7.42;4.10;;;;;;;7.32;75.41;100563.39;1665263;84;21023;-76
2021/10/24 07:05:46;;;;;;;5.05;3.35;;;;;;;7.36;75.41;100550.41;1699183;84;21022;-76
2021/10/24 07:08:14;;;;;;;8.33;4.87;;;;;;;7.40;75.61;100562.34;1701684;84;21952;-76
2021/10/24 07:10:42;;;;;;;4.67;3.92;;;;;;;7.42;75.52;100556.28;1665956;84;21055;-77
2021/10/24 07:13:09;;;;;;;6.05;3.33;;;;;;;7.43;75.39;100563.28;1694706;83;21043;-78
2021/10/24 07:15:35;;;;;;;6.58;2.98;;;;;;;7.41;75.13;100566.67;1688665;84;22284;-80
2021/10/24 07:18:02;;;;;;;5.08;3.72;;;;;;;7.40;75.03;100563.67;1664477;84;21043;-78
2021/10/24 07:20:28;;;;;;;3.10;2.65;;;;;;;7.36;75.00;100561.94;1691251;84;21562;-80
2021/10/24 07:22:57;;;;;;;3.22;2.92;;;;;;;7.36;74.94;100574.49;1700300;84;20984;-83
2021/10/24 07:25:25;;;;;;;15.70;14.07;;;;;;;7.37;74.65;100585.00;1671410;84;21040;-79
2021/10/24 07:27:52;;;;;;;13.35;10.43;;;;;;;7.39;74.67;100590.13;1689683;84;21024;-81
2021/10/24 07:30:19;;;;;;;3.90;2.10;;;;;;;7.31;74.40;100595.70;1698194;84;21212;-79
2021/10/24 07:32:53;;;;;;;3.15;2.22;;;;;;;7.14;74.75;100622.56;1686320;84;21125;-87
2021/10/24 07:35:39;;;;;;;2.20;1.70;;;;;;;6.95;75.13;100609.48;1653792;84;21124;-87
2021/10/24 07:38:06;;;;;;;1.65;1.20;;;;;;;6.74;76.85;100605.11;1702396;84;20937;-87
2021/10/24 07:40:35;;;;;;;1.50;1.35;;;;;;;6.65;77.88;100600.98;1669053;85;20988;-90
2021/10/24 07:43:03;;;;;;;2.92;1.40;;;;;;;6.55;78.77;100602.70;1640271;86;21540;-84
2021/10/24 07:45:30;;;;;;;1.80;1.65;;;;;;;6.49;79.48;100605.34;1648168;85;21111;-85
2021/10/24 07:47:57;;;;;;;1.10;1.00;;;;;;;6.44;79.97;100605.95;1678444;85;21032;-79
2021/10/24 07:50:26;;;;;;;1.40;1.30;;;;;;;6.39;80.40;100607.05;1673378;85;21068;-86
2021/10/24 07:52:53;;;;;;;1.67;1.57;;;;;;;6.37;80.66;100613.13;1679238;84;21013;-87
2021/10/24 07:55:24;;;;;;;1.30;1.20;;;;;;;6.36;81.27;100615.48;1685562;84;21016;-87
2021/10/24 07:57:52;;;;;;;2.12;1.50;;;;;;;6.35;81.77;100615.16;1674964;85;21130;-87
2021/10/24 08:00:19;;;;;;;2.75;1.40;;;;;;;6.36;82.22;100620.00;1684821;84;21553;-83
2021/10/24 08:03:01;;;;;;;3.62;2.65;;;;;;;6.40;82.62;100614.56;1672161;84;21121;-83
2021/10/24 08:05:25;;;;;;;2.65;1.70;;;;;;;6.45;82.88;100618.80;1696218;84;21497;-81
2021/10/24 08:07:53;;;;;;;2.60;1.75;;;;;;;6.54;83.05;100622.94;1649598;87;21558;-81
2021/10/24 08:10:19;;;;;;;3.17;2.22;;;;;;;6.61;82.94;100606.93;1617168;87;21940;-81
2021/10/24 08:12:47;;;;;;;3.50;2.00;;;;;;;6.68;82.94;100613.10;1690991;84;21588;-82
2021/10/24 08:15:14;;;;;;;2.72;1.82;;;;;;;6.76;82.99;100612.94;1700732;83;21035;-80
2021/10/24 08:17:42;;;;;;;2.42;1.92;;;;;;;6.87;83.32;100609.65;1700925;83;20996;-79
2021/10/24 08:20:27;;;;;;;3.58;1.82;;;;;;;6.99;83.31;100616.89;1701150;83;21013;-79
2021/10/24 08:22:54;;;;;;;2.35;1.85;;;;;;;7.11;82.93;100630.47;1698311;84;21106;-80
2021/10/24 08:25:21;;;;;;;6.80;3.80;;;;;;;7.15;81.50;100627.69;1684450;84;21148;-77
2021/10/24 08:27:49;;;;;;;2.37;2.00;;;;;;;7.19;80.93;100632.97;1683286;84;20918;-77
2021/10/24 08:30:26;;;;;;;2.67;2.08;;;;;;;7.23;80.41;100634.20;1626928;87;21581;-79
2021/10/24 08:33:06;;;;;;;2.58;1.80;;;;;;;7.29;79.65;100631.22;1594186;87;21053;-76
2021/10/24 08:35:35;;;;;;;3.25;2.55;;;;;;;7.36;78.39;100627.50;1673025;85;20975;-77
2021/10/24 08:38:01;;;;;;;2.80;2.37;;;;;;;7.44;76.24;100629.14;1675664;84;21541;-82
2021/10/24 08:40:29;;;;;;;6.70;2.98;;;;;;;7.52;76.03;100652.22;1697144;84;21568;-81
2021/10/24 08:43:03;;;;;;;2.50;1.98;;;;;;;7.34;75.28;100652.30;1678358;84;21491;-75
2021/10/24 08:45:27;;;;;;;3.92;2.15;;;;;;;7.06;76.74;100671.71;1672243;84;21185;-75
2021/10/24 08:47:53;;;;;;;6.72;3.62;;;;;;;6.70;78.82;100676.05;1694464;84;22153;-80
2021/10/24 08:50:20;;;;;;;3.80;3.22;;;;;;;6.49;79.29;100678.83;1692299;84;21521;-83
2021/10/24 08:52:47;;;;;;;4.50;3.40;;;;;;;6.35;80.29;100672.61;1690024;83;20980;-85
2021/10/24 08:55:13;;;;;;;6.72;4.58;;;;;;;6.33;81.27;100677.85;1659872;84;20928;-84
2021/10/24 08:57:39;;;;;;;12.40;8.90;;;;;;;6.31;82.08;100675.88;1671168;84;21029;-78
2021/10/24 09:00:08;;;;;;;12.98;8.55;;;;;;;6.27;82.33;100679.97;1697237;84;20997;-80
2021/10/24 09:03:03;;;;;;;10.45;6.80;;;;;;;6.26;83.22;100672.46;1693629;83;21541;-77
2021/10/24 09:05:41;;;;;;;4.12;3.20;;;;;;;6.22;83.42;100679.23;1666794;84;21384;-83
2021/10/24 09:08:12;;;;;;;2.70;2.50;;;;;;;6.21;83.79;100678.08;1669215;84;21575;-76
2021/10/24 09:10:53;;;;;;;2.20;1.98;;;;;;;6.24;84.40;100674.49;1684707;84;21733;-80
2021/10/24 09:13:27;;;;;;;2.15;1.90;;;;;;;6.29;84.59;100680.07;1686234;84;21049;-77
2021/10/24 09:16:06;;;;;;;2.25;1.20;;;;;;;6.30;84.50;100683.56;1701067;84;21013;-77
2021/10/24 09:18:38;;;;;;;1.20;1.10;;;;;;;6.31;83.92;100675.37;1690438;84;21185;-77
2021/10/24 09:21:22;;;;;;;1.12;1.10;;;;;;;6.35;83.72;100683.30;1660934;85;21017;-77
2021/10/24 09:23:55;;;;;;;1.27;0.90;;;;;;;6.42;83.82;100680.66;1687856;84;21077;-78
2021/10/24 09:26:24;;;;;;;2.00;0.82;;;;;;;6.51;83.61;100676.80;1674942;85;21139;-77
2021/10/24 09:29:03;;;;;;;1.10;1.00;;;;;;;6.64;82.94;100680.85;1685229;84;21025;-76
2021/10/24 09:31:36;;;;;;;1.10;1.00;;;;;;;6.74;82.74;100693.84;1702706;84;20950;-84
2021/10/24 09:34:23;;;;;;;1.27;1.17;;;;;;;6.80;81.98;100683.69;1665413;84;21008;-82
2021/10/24 09:36:55;;;;;;;1.37;1.27;;;;;;;6.85;81.96;100686.08;1696024;84;20985;-77
2021/10/24 09:39:34;;;;;;;2.45;1.62;;;;;;;6.91;81.71;100691.94;1684404;84;21165;-80
2021/10/24 09:42:17;;;;;;;1.90;1.27;;;;;;;6.97;80.89;100682.29;1675577;84;20992;-85
2021/10/24 09:45:16;;;;;;;2.40;1.80;;;;;;;7.05;80.58;100694.13;1662463;85;21036;-82
2021/10/24 09:47:46;;;;;;;2.92;1.47;;;;;;;7.11;79.49;100699.19;1692506;83;20942;-83
2021/10/24 09:50:40;;;;;;;2.27;1.67;;;;;;;7.18;78.73;100691.51;1691241;84;20930;-84
2021/10/24 09:53:21;;;;;;;;;;;;;;;7.23;78.72;100690.39;1624756;86;21232;-82
2021/10/24 09:56:00;;;;;;;2.70;1.25;;;;;;;7.31;78.21;100692.86;1654020;86;20152;-79
2021/10/24 09:58:34;;;;;;;1.22;1.12;;;;;;;7.35;77.92;100688.74;1705322;83;21025;-79
2021/10/24 10:01:01;;;;;;;1.82;1.22;;;;;;;7.41;77.35;100685.25;1683060;83;20992;-83
2021/10/24 10:03:28;;;;;;;2.05;1.82;;;;;;;7.43;75.70;100683.17;1702494;83;21014;-82
2021/10/24 10:05:55;;;;;;;1.30;1.20;;;;;;;7.47;75.76;100684.95;1698761;83;21223;-80
2021/10/24 10:08:22;;;;;;;1.30;1.20;;;;;;;7.50;74.45;100679.69;1668236;85;21072;-79
2021/10/24 10:10:52;;;;;;;2.05;1.47;;;;;;;7.54;73.81;100668.88;1689696;83;21021;-81
2021/10/24 10:13:25;;;;;;;1.12;1.00;;;;;;;7.58;73.58;100678.97;1673821;83;20992;-82
2021/10/24 10:15:51;;;;;;;1.10;1.10;;;;;;;7.62;73.06;100672.70;1652317;85;21057;-79
2021/10/24 10:18:19;;;;;;;2.02;1.40;;;;;;;7.67;72.84;100674.25;1684374;83;21524;-79
2021/10/24 10:20:52;;;;;;;3.70;2.08;;;;;;;7.68;71.92;100684.73;1684701;84;21005;-80
2021/10/24 10:23:22;;;;;;;6.00;1.65;;;;;;;7.67;72.12;100687.64;1698036;83;20951;-75
2021/10/24 10:25:51;;;;;;;1.22;1.12;;;;;;;7.64;71.52;100684.84;1677479;83;21485;-72
2021/10/24 10:28:44;;;;;;;1.77;1.12;;;;;;;7.61;70.88;100703.17;1709098;83;21085;-74
2021/10/24 10:31:14;;;;;;;1.50;1.40;;;;;;;7.57;70.46;100698.76;1702320;83;21039;-74
2021/10/24 10:33:40;;;;;;;2.27;1.70;;;;;;;7.57;70.69;100692.58;1677019;83;21481;-74
2021/10/24 10:36:08;;;;;;;1.67;1.52;;;;;;;7.59;70.70;100682.47;1680747;84;21093;-79
2021/10/24 10:38:42;;;;;;;2.22;1.45;;;;;;;7.61;70.29;100690.63;1614911;86;21079;-75
2021/10/24 10:41:12;;;;;;;7.70;2.15;;;;;;;7.63;70.36;100683.19;1662724;85;21569;-72
2021/10/24 10:43:41;;;;;;;1.25;1.15;;;;;;;7.67;70.44;100684.45;1677169;83;21002;-74
2021/10/24 10:46:08;;;;;;;1.42;1.32;;;;;;;7.71;70.54;100691.03;1706065;83;21020;-74
2021/10/24 10:48:42;;;;;;;2.52;1.80;;;;;;;7.76;70.07;100691.75;1692578;84;21123;-73
2021/10/24 10:51:23;;;;;;;2.47;1.52;;;;;;;7.78;69.79;100691.84;1675354;84;21522;-72
2021/10/24 10:54:03;;;;;;;2.12;1.80;;;;;;;7.79;68.66;100690.81;1698212;84;21039;-73
2021/10/24 10:56:36;;;;;;;1.85;1.57;;;;;;;7.79;67.93;100717.59;1683564;84;21180;-78
2021/10/24 10:59:05;;;;;;;1.00;1.00;;;;;;;7.78;65.88;100718.62;1659483;85;20978;-79
2021/10/24 11:01:39;;;;;;;1.87;1.60;;;;;;;7.77;64.94;100718.84;1698066;83;21076;-79
2021/10/24 11:04:16;;;;;;;1.25;1.15;;;;;;;7.74;64.66;100711.20;1660145;86;21047;-78
2021/10/24 11:06:56;;;;;;;1.92;1.27;;;;;;;7.73;64.52;100702.34;1688544;83;21519;-76
2021/10/24 11:09:42;;;;;;;2.47;2.27;;;;;;;7.72;64.14;100719.44;1697707;83;21226;-76
2021/10/24 11:12:17;;;;;;;2.45;1.72;;;;;;;7.72;65.37;100713.28;1683470;83;21497;-77
2021/10/24 11:14:45;;;;;;;2.33;2.12;;;;;;;7.68;66.56;100721.39;1683484;83;21044;-74
2021/10/24 11:17:35;;;;;;;1.72;1.60;;;;;;;7.62;67.14;100730.27;1686774;83;21063;-80
2021/10/24 11:20:27;;;;;;;2.17;1.60;;;;;;;7.54;67.42;100733.95;1655750;84;21644;-75
2021/10/24 11:23:02;;;;;;;1.60;1.50;;;;;;;7.36;68.10;100743.92;1687235;84;21172;-76
2021/10/24 11:25:35;;;;;;;2.85;2.65;;;;;;;7.23;68.79;100748.42;1677930;84;21000;-79
2021/10/24 11:28:14;;;;;;;2.05;1.60;;;;;;;7.18;69.15;100782.98;1697198;84;20913;-79
2021/10/24 11:30:41;;;;;;;1.70;1.32;;;;;;;7.11;69.70;100784.80;1675875;84;21655;-76
2021/10/24 11:33:08;;;;;;;1.80;1.47;;;;;;;6.97;69.36;100759.85;1682465;84;21873;-72
2021/10/24 11:35:36;;;;;;;0.90;0.90;;;;;;;6.83;70.07;100761.66;1671413;84;21320;-76
2021/10/24 11:38:09;;;;;;;1.57;0.90;;;;;;;6.74;69.40;100752.16;1680362;84;21052;-76
2021/10/24 11:40:40;;;;;;;1.27;1.22;;;;;;;6.71;69.33;100751.22;1665311;84;21509;-76
2021/10/24 11:43:16;;;;;;;1.10;1.00;;;;;;;6.73;69.00;100755.02;1682117;84;20965;-77
2021/10/24 11:45:53;;;;;;;1.22;1.10;;;;;;;6.76;68.94;100762.12;1682628;84;21549;-74